Time;durP1;ratioP1;P1;durP2;ratioP2;P2;SDS_P1;SDS_P2;PMS_P1;PMS_P2;Temp;Humidity;BMP_temperature;BMP_pressure;BME280_temperature;BME280_humidity;BME280_pressure;Samples;Min_cycle;Max_cycle;Signal;HPM_P1;HPM_P2
2021/11/07 00:00:36;;;;;;;6.45;4.60;;;;;;;10.12;100.00;101739.63;5243947;28;20025;-69
2021/11/07 00:05:54;;;;;;;8.18;4.32;;;;;;;10.02;100.00;101717.63;5243998;28;20494;-69
2021/11/07 00:11:33;;;;;;;7.75;5.28;;;;;;;9.95;100.00;101724.22;5242866;28;20025;-69
2021/11/07 00:14:06;;;;;;;8.10;5.10;;;;;;;10.03;100.00;101723.69;5242333;28;20032;-69
2021/11/07 00:16:39;;;;;;;;;;;;;;;10.48;100.00;101724.94;5242707;28;20062;-69
2021/11/07 00:19:18;;;;;;;12.13;5.25;;;;;;;9.96;100.00;101710.19;5243798;28;19935;-69
2021/11/07 00:24:40;;;;;;;6.97;4.90;;;;;;;10.02;100.00;101708.94;5245277;28;20037;-69
2021/11/07 00:27:30;;;;;;;8.52;4.82;;;;;;;10.01;100.00;101713.34;5243747;28;20116;-69
2021/11/07 00:38:55;;;;;;;6.97;5.20;;;;;;;10.04;100.00;101720.13;5211726;28;20128;-69
2021/11/07 00:49:06;;;;;;;7.90;5.00;;;;;;;10.02;100.00;101722.03;5242233;28;20711;-69
2021/11/07 00:57:03;;;;;;;7.60;5.05;;;;;;;10.06;100.00;101721.72;5241275;28;20037;-69
2021/11/07 00:59:45;;;;;;;5.90;5.22;;;;;;;10.02;100.00;101709.78;5240150;28;20029;-69
2021/11/07 01:02:26;;;;;;;6.97;5.63;;;;;;;10.09;100.00;101699.72;5241323;28;20403;-70
2021/11/07 01:04:59;;;;;;;6.90;5.57;;;;;;;10.09;100.00;101704.97;5242569;28;20398;-69
2021/11/07 01:07:30;;;;;;;10.48;5.82;;;;;;;10.14;100.00;101702.84;5243036;28;20020;-69
2021/11/07 01:10:03;;;;;;;7.43;5.72;;;;;;;10.09;100.00;101702.34;5242781;28;20024;-69
2021/11/07 01:12:34;;;;;;;7.05;5.15;;;;;;;10.11;100.00;101701.28;5242472;28;20368;-69
2021/11/07 01:15:07;;;;;;;8.18;5.43;;;;;;;10.14;100.00;101702.84;5240551;28;20144;-69
2021/11/07 01:17:40;;;;;;;6.38;5.78;;;;;;;10.12;100.00;101699.53;5239905;28;20036;-69
2021/11/07 01:20:12;;;;;;;6.30;5.18;;;;;;;10.16;100.00;101700.97;5242715;28;20522;-69
2021/11/07 01:23:01;;;;;;;6.45;5.60;;;;;;;10.16;100.00;101693.97;5243748;28;20029;-69
2021/11/07 01:25:44;;;;;;;6.82;5.57;;;;;;;10.16;100.00;101675.63;5241057;28;20036;-69
2021/11/07 01:28:16;;;;;;;6.80;6.10;;;;;;;10.12;100.00;101678.56;5239388;28;20483;-69
2021/11/07 01:30:51;;;;;;;6.10;5.47;;;;;;;10.15;100.00;101668.72;5242686;28;20082;-69
2021/11/07 01:33:26;;;;;;;6.97;5.68;;;;;;;10.12;100.00;101673.34;5242054;28;20021;-69
2021/11/07 01:39:11;;;;;;;8.63;6.70;;;;;;;10.10;100.00;101669.97;5187500;28;20034;-69
2021/11/07 01:41:56;;;;;;;8.20;6.22;;;;;;;10.14;100.00;101671.44;5232643;28;20041;-69
2021/11/07 01:44:50;;;;;;;8.02;6.82;;;;;;;10.26;100.00;101656.69;5241387;28;20479;-69
2021/11/07 01:47:23;;;;;;;7.97;6.65;;;;;;;10.14;100.00;101659.19;5239699;28;20033;-69
2021/11/07 01:49:54;;;;;;;9.20;7.05;;;;;;;10.20;100.00;101653.53;5240064;28;20061;-69
2021/11/07 01:52:26;;;;;;;8.95;7.35;;;;;;;10.20;100.00;101644.84;5241081;28;20398;-69
2021/11/07 01:54:59;;;;;;;10.80;7.65;;;;;;;10.21;100.00;101651.72;5239080;28;20029;-69
2021/11/07 01:57:33;;;;;;;;;;;;;;;10.68;100.00;101655.38;5220764;28;20120;-69
2021/11/07 02:00:13;;;;;;;8.70;7.40;;;;;;;10.33;100.00;101650.91;5240988;28;19966;-69
2021/11/07 02:02:45;;;;;;;9.88;7.93;;;;;;;10.28;100.00;101637.31;5236664;28;20029;-69
2021/11/07 02:05:16;;;;;;;9.88;7.97;;;;;;;10.31;100.00;101624.00;5241245;28;20502;-69
2021/11/07 02:07:48;;;;;;;12.77;8.32;;;;;;;10.30;100.00;101627.53;5238900;28;20466;-69
2021/11/07 02:10:19;;;;;;;10.55;9.00;;;;;;;10.28;100.00;101618.97;5238498;28;20064;-69
2021/11/07 02:12:50;;;;;;;12.15;8.55;;;;;;;10.29;100.00;101617.19;5237368;28;20075;-69
2021/11/07 02:15:22;;;;;;;9.45;8.55;;;;;;;10.30;100.00;101616.22;5239587;28;20033;-69
2021/11/07 02:17:54;;;;;;;12.80;9.00;;;;;;;10.27;100.00;101609.44;5241279;28;20029;-69
2021/11/07 02:20:29;;;;;;;10.90;9.10;;;;;;;10.30;100.00;101596.09;5240777;28;20025;-69
2021/11/07 02:23:08;;;;;;;10.05;9.02;;;;;;;10.32;100.00;101590.78;5238598;28;20030;-69
2021/11/07 02:25:42;;;;;;;11.65;9.82;;;;;;;10.32;100.00;101583.75;5240734;28;20033;-69
2021/11/07 02:28:27;;;;;;;13.88;10.70;;;;;;;10.40;100.00;101588.44;5235995;28;20060;-69
2021/11/07 02:31:00;;;;;;;11.30;9.68;;;;;;;10.28;100.00;101584.91;5237117;28;20037;-69
2021/11/07 02:33:31;;;;;;;13.07;10.85;;;;;;;10.30;100.00;101585.63;5242576;28;20025;-69
2021/11/07 02:36:09;;;;;;;12.57;10.93;;;;;;;10.37;100.00;101588.66;5241927;28;20032;-69
2021/11/07 02:38:41;;;;;;;12.65;11.15;;;;;;;10.28;100.00;101579.69;5239651;28;20152;-69
2021/11/07 02:41:15;;;;;;;15.02;11.07;;;;;;;10.29;100.00;101560.41;5239084;28;20025;-69
2021/11/07 02:43:52;;;;;;;14.45;11.85;;;;;;;10.37;100.00;101546.75;5238144;28;20033;-69
2021/11/07 02:46:23;;;;;;;15.32;11.15;;;;;;;10.32;100.00;101548.88;5238230;28;20108;-69
2021/11/07 02:48:57;;;;;;;14.23;12.10;;;;;;;10.35;100.00;101552.09;5238878;28;20120;-69
2021/11/07 02:51:31;;;;;;;16.25;11.23;;;;;;;10.33;100.00;101556.59;5239245;28;20064;-71
2021/11/07 02:54:05;;;;;;;13.43;12.00;;;;;;;10.36;100.00;101545.91;5237307;28;20498;-69
2021/11/07 02:56:37;;;;;;;16.88;12.27;;;;;;;10.35;100.00;101549.50;5240078;28;20029;-69
2021/11/07 02:59:17;;;;;;;13.35;11.60;;;;;;;10.44;100.00;101551.44;5238710;28;20021;-69
2021/11/07 03:01:49;;;;;;;14.00;11.68;;;;;;;10.36;100.00;101563.41;5239949;28;20041;-69
2021/11/07 03:04:22;;;;;;;17.37;12.63;;;;;;;10.38;100.00;101556.25;5241564;28;20038;-68
2021/11/07 03:06:53;;;;;;;13.65;11.38;;;;;;;10.46;100.00;101561.81;5238888;28;20496;-69
2021/11/07 03:09:30;;;;;;;12.57;11.27;;;;;;;10.48;100.00;101539.78;5241208;28;20040;-69
2021/11/07 03:12:04;;;;;;;15.80;12.02;;;;;;;10.42;100.00;101540.25;5238683;28;20435;-69
2021/11/07 03:14:46;;;;;;;13.00;11.18;;;;;;;10.56;100.00;101533.13;5240388;28;20795;-69
2021/11/07 03:17:26;;;;;;;13.75;11.07;;;;;;;10.58;100.00;101526.00;5237667;28;20112;-69
2021/11/07 03:19:58;;;;;;;12.98;10.52;;;;;;;10.51;100.00;101523.00;5237883;28;20036;-69
2021/11/07 03:22:30;;;;;;;12.10;10.93;;;;;;;10.52;100.00;101529.06;5238379;28;20037;-69
2021/11/07 03:25:04;;;;;;;13.02;10.90;;;;;;;10.54;100.00;101521.94;5237191;28;20036;-69
2021/11/07 03:27:42;;;;;;;14.98;11.82;;;;;;;10.55;100.00;101523.59;5237083;28;20053;-69
2021/11/07 03:30:48;;;;;;;14.57;11.52;;;;;;;10.61;100.00;101524.00;5240360;28;20025;-69
2021/11/07 03:35:54;;;;;;;15.50;11.98;;;;;;;10.58;100.00;101524.22;5238062;28;20124;-69
2021/11/07 03:38:25;;;;;;;13.73;11.07;;;;;;;10.63;100.00;101531.75;5240484;28;20029;-69
2021/11/07 03:40:57;;;;;;;14.57;11.88;;;;;;;10.57;100.00;101530.41;5240271;28;20055;-69
2021/11/07 03:43:29;;;;;;;12.98;11.65;;;;;;;10.65;100.00;101516.75;5241887;28;20114;-69
2021/11/07 03:46:01;;;;;;;14.45;12.43;;;;;;;10.64;100.00;101523.75;5243184;28;20018;-69
2021/11/07 03:48:32;;;;;;;16.77;12.48;;;;;;;10.63;100.00;101510.78;5242407;28;20102;-69
2021/11/07 03:51:05;;;;;;;13.98;12.50;;;;;;;10.68;100.00;101500.78;5241494;28;20510;-69
2021/11/07 03:53:37;;;;;;;;;;;;;;;11.07;100.00;101496.13;5244757;28;20144;-69
2021/11/07 03:56:09;;;;;;;17.38;13.73;;;;;;;10.77;100.00;101504.50;5244332;28;20007;-69
2021/11/07 03:58:42;;;;;;;15.15;13.55;;;;;;;10.76;100.00;101497.56;5242772;28;20463;-69
2021/11/07 04:01:14;;;;;;;16.08;13.40;;;;;;;10.78;100.00;101493.91;5242130;28;20029;-69
2021/11/07 04:03:46;;;;;;;17.15;14.60;;;;;;;10.77;100.00;101499.28;5243938;28;20036;-69
2021/11/07 04:06:17;;;;;;;21.42;14.18;;;;;;;10.78;100.00;101496.53;5242991;28;20040;-69
2021/11/07 04:08:49;;;;;;;19.02;15.10;;;;;;;10.75;100.00;101477.56;5244080;28;20060;-69
2021/11/07 04:11:20;;;;;;;19.75;15.48;;;;;;;10.79;100.00;101479.84;5239379;28;20547;-69
2021/11/07 04:13:52;;;;;;;16.08;14.38;;;;;;;10.83;100.00;101485.69;5243789;28;20219;-69
2021/11/07 04:16:23;;;;;;;17.35;15.13;;;;;;;10.83;100.00;101477.81;5242343;28;20561;-69
2021/11/07 04:18:55;;;;;;;20.10;14.85;;;;;;;10.84;100.00;101466.41;5241232;28;20449;-69
2021/11/07 04:21:26;;;;;;;17.77;14.52;;;;;;;10.84;100.00;101461.16;5241423;28;20029;-69
2021/11/07 04:23:58;;;;;;;15.65;13.80;;;;;;;10.87;100.00;101466.16;5225022;28;20453;-69
2021/11/07 04:26:29;;;;;;;19.48;15.02;;;;;;;10.89;100.00;101459.84;5241234;28;20017;-69
2021/11/07 04:29:00;;;;;;;19.15;15.02;;;;;;;10.92;100.00;101462.25;5243418;28;20033;-69
2021/11/07 04:31:32;;;;;;;16.63;14.30;;;;;;;10.95;100.00;101464.63;5242207;28;20029;-69
2021/11/07 04:34:03;;;;;;;20.55;14.95;;;;;;;10.92;100.00;101458.78;5241897;28;20281;-69
2021/11/07 04:36:34;;;;;;;18.05;14.23;;;;;;;10.88;100.00;101466.06;5241706;28;20443;-69
2021/11/07 04:39:06;;;;;;;16.45;14.68;;;;;;;10.89;100.00;101474.75;5241764;28;20197;-69
2021/11/07 04:41:37;;;;;;;18.27;16.23;;;;;;;10.93;100.00;101478.81;5242890;28;20965;-69
2021/11/07 04:44:09;;;;;;;20.17;15.73;;;;;;;10.96;100.00;101487.28;5240440;28;20064;-69
2021/11/07 04:46:40;;;;;;;18.30;15.43;;;;;;;10.99;100.00;101488.00;5242546;28;20049;-69
2021/11/07 04:49:12;;;;;;;19.20;15.52;;;;;;;10.99;100.00;101480.97;5242298;28;20159;-69
2021/11/07 04:51:44;;;;;;;21.92;15.82;;;;;;;11.03;100.00;101471.91;5243557;28;20053;-69
2021/11/07 04:54:15;;;;;;;16.98;15.10;;;;;;;11.00;100.00;101461.66;5240518;28;20483;-69
2021/11/07 04:56:47;;;;;;;20.15;15.40;;;;;;;11.05;100.00;101484.88;5241200;28;20048;-69
2021/11/07 04:59:18;;;;;;;18.85;16.17;;;;;;;11.02;100.00;101477.25;5238431;28;20029;-69
2021/11/07 05:01:50;;;;;;;23.38;17.60;;;;;;;11.08;100.00;101458.44;5238382;28;20059;-69
2021/11/07 05:04:21;;;;;;;23.05;17.80;;;;;;;11.09;100.00;101454.84;5241880;28;20421;-69
2021/11/07 05:06:53;;;;;;;24.95;18.45;;;;;;;11.11;100.00;101477.41;5240700;28;20501;-69
2021/11/07 05:09:28;;;;;;;21.23;18.05;;;;;;;11.15;100.00;101467.50;5242201;28;20026;-69
2021/11/07 05:11:59;;;;;;;21.75;18.73;;;;;;;11.18;100.00;101475.16;5240063;28;20379;-69
2021/11/07 05:14:31;;;;;;;25.73;20.67;;;;;;;11.21;100.00;101464.38;5242053;28;20039;-69
2021/11/07 05:17:03;;;;;;;22.17;19.13;;;;;;;11.18;100.00;101454.16;5240574;28;20021;-69
2021/11/07 05:19:36;;;;;;;23.05;18.77;;;;;;;11.28;100.00;101473.47;5239878;28;20021;-69
2021/11/07 05:22:07;;;;;;;23.90;18.63;;;;;;;11.32;100.00;101480.13;5243219;28;20383;-69
2021/11/07 05:24:39;;;;;;;20.58;17.95;;;;;;;11.33;100.00;101481.00;5240562;28;20037;-69
2021/11/07 05:27:10;;;;;;;22.05;19.75;;;;;;;11.35;100.00;101471.19;5240759;28;20029;-69
2021/11/07 05:29:42;;;;;;;27.55;17.90;;;;;;;11.37;100.00;101483.25;5241798;28;20029;-69
2021/11/07 05:32:13;;;;;;;22.60;19.08;;;;;;;11.35;100.00;101461.53;5242223;28;20479;-69
2021/11/07 05:34:46;;;;;;;23.10;20.38;;;;;;;11.36;100.00;101463.19;5242819;28;20025;-69
2021/11/07 05:37:17;;;;;;;23.38;19.15;;;;;;;11.40;100.00;101475.16;5243420;28;20036;-69
2021/11/07 05:39:49;;;;;;;24.08;19.65;;;;;;;11.42;100.00;101491.59;5241841;28;20025;-69
2021/11/07 05:42:22;;;;;;;29.00;20.98;;;;;;;11.39;100.00;101473.47;5242303;28;20029;-69
2021/11/07 05:44:53;;;;;;;25.60;19.47;;;;;;;11.43;100.00;101477.50;5241151;28;20330;-69
2021/11/07 05:47:24;;;;;;;24.05;19.80;;;;;;;11.41;100.00;101483.84;5240430;28;20542;-69
2021/11/07 05:49:56;;;;;;;22.20;18.10;;;;;;;11.42;100.00;101462.72;5242577;28;20340;-69
2021/11/07 05:52:29;;;;;;;23.63;17.08;;;;;;;11.40;100.00;101475.16;5240186;28;20065;-69
2021/11/07 05:55:01;;;;;;;21.13;17.02;;;;;;;11.36;100.00;101476.31;5239424;28;20021;-69
2021/11/07 05:57:32;;;;;;;22.88;16.70;;;;;;;11.34;100.00;101475.63;5238472;28;20149;-69
2021/11/07 06:00:06;;;;;;;23.80;17.23;;;;;;;11.34;100.00;101478.25;5240573;28;20025;-69
2021/11/07 06:02:38;;;;;;;23.83;17.38;;;;;;;11.34;100.00;101488.72;5238933;28;20059;-69
2021/11/07 06:05:09;;;;;;;24.65;18.05;;;;;;;11.36;100.00;101476.31;5240349;28;20017;-69
2021/11/07 06:07:41;;;;;;;25.95;17.13;;;;;;;11.34;100.00;101474.78;5239781;28;20082;-69
2021/11/07 06:10:13;;;;;;;27.42;18.15;;;;;;;11.38;100.00;101481.47;5238088;28;20022;-69
2021/11/07 06:12:44;;;;;;;22.98;17.83;;;;;;;11.37;100.00;101485.03;5237637;28;20025;-69
2021/11/07 06:15:16;;;;;;;23.42;16.95;;;;;;;11.40;100.00;101477.78;5237192;28;20035;-69
2021/11/07 06:17:47;;;;;;;23.52;17.00;;;;;;;11.37;100.00;101492.91;5237585;28;20036;-69
2021/11/07 06:20:18;;;;;;;22.73;17.48;;;;;;;11.38;100.00;101497.19;5239412;28;20025;-69
2021/11/07 06:22:50;;;;;;;27.23;16.30;;;;;;;11.37;100.00;101499.00;5240380;28;20941;-69
2021/11/07 06:25:22;;;;;;;21.33;14.50;;;;;;;11.37;100.00;101500.78;5242510;28;20033;-69
2021/11/07 06:27:54;;;;;;;26.00;12.48;;;;;;;11.39;100.00;101499.69;5239180;28;20025;-69
2021/11/07 06:30:25;;;;;;;19.98;11.40;;;;;;;11.41;100.00;101510.09;5239949;28;20030;-71
2021/11/07 06:32:57;;;;;;;22.20;11.77;;;;;;;11.42;100.00;101519.63;5242298;28;20639;-69
2021/11/07 06:35:28;;;;;;;22.67;11.85;;;;;;;11.37;100.00;101495.53;5240418;28;20033;-69
2021/11/07 06:38:00;;;;;;;18.65;10.48;;;;;;;11.45;100.00;101507.09;5240972;28;20028;-69
2021/11/07 06:40:33;;;;;;;19.95;8.70;;;;;;;11.40;100.00;101505.78;5238853;28;20029;-69
2021/11/07 06:43:04;;;;;;;24.85;7.90;;;;;;;11.43;100.00;101519.50;5241420;28;20017;-69
2021/11/07 06:45:36;;;;;;;19.67;5.55;;;;;;;11.38;100.00;101519.03;5239621;28;20112;-69
2021/11/07 06:48:08;;;;;;;13.23;4.85;;;;;;;11.36;100.00;101518.28;5238798;28;20495;-69
2021/11/07 06:50:39;;;;;;;13.88;4.20;;;;;;;11.33;100.00;101515.09;5239778;28;20084;-69
2021/11/07 06:53:10;;;;;;;16.63;4.32;;;;;;;11.28;100.00;101522.47;5238849;28;20523;-69
2021/11/07 06:55:47;;;;;;;17.52;4.10;;;;;;;11.28;100.00;101533.78;5240189;28;20502;-69
2021/11/07 06:58:22;;;;;;;17.00;5.15;;;;;;;11.19;100.00;101529.25;5240379;28;20463;-69
2021/11/07 07:00:53;;;;;;;13.90;3.70;;;;;;;11.15;100.00;101519.97;5237860;28;20466;-69
2021/11/07 07:03:33;;;;;;;16.63;4.10;;;;;;;11.17;100.00;101525.91;5238307;28;20037;-69
2021/11/07 07:06:12;;;;;;;16.10;3.90;;;;;;;11.07;100.00;101519.72;5237182;28;20028;-69
2021/11/07 07:08:57;;;;;;;14.85;3.33;;;;;;;11.02;100.00;101535.78;5239721;28;20051;-69
2021/11/07 07:11:38;;;;;;;21.38;4.85;;;;;;;10.99;100.00;101535.19;5240591;28;20514;-69
2021/11/07 07:14:34;;;;;;;15.27;3.47;;;;;;;10.80;100.00;101533.94;5240405;28;20026;-69
2021/11/07 07:17:22;;;;;;;12.55;3.22;;;;;;;10.83;100.00;101545.97;5242889;28;20028;-69
2021/11/07 07:29:13;;;;;;;16.10;3.40;;;;;;;10.66;100.00;101553.31;5243887;28;20035;-69
2021/11/07 07:34:21;;;;;;;15.43;3.55;;;;;;;10.57;100.00;101559.25;5242725;28;20037;-69
2021/11/07 07:36:56;;;;;;;17.33;3.13;;;;;;;10.54;100.00;101558.63;5241028;28;20032;-69
2021/11/07 07:39:35;;;;;;;17.13;3.45;;;;;;;10.57;100.00;101559.25;5242269;28;20498;-68
2021/11/07 07:42:13;;;;;;;15.38;3.42;;;;;;;10.62;100.00;101566.75;5244139;28;20045;-69
2021/11/07 07:44:52;;;;;;;20.33;3.53;;;;;;;10.56;100.00;101575.88;5242272;28;20423;-69
2021/11/07 07:47:27;;;;;;;11.32;2.85;;;;;;;10.57;100.00;101572.34;5245154;28;20073;-69
2021/11/07 07:50:03;;;;;;;20.95;3.97;;;;;;;10.63;100.00;101568.41;5244903;28;20029;-70
2021/11/07 07:52:35;;;;;;;19.42;4.15;;;;;;;10.62;100.00;101566.75;5244703;28;20053;-69
2021/11/07 07:55:08;;;;;;;13.35;4.32;;;;;;;10.66;100.00;101565.59;5244046;28;20029;-69
2021/11/07 07:57:50;;;;;;;17.95;3.80;;;;;;;10.67;100.00;101559.38;5244481;28;20474;-69
2021/11/07 08:00:27;;;;;;;18.10;3.97;;;;;;;10.76;100.00;101560.47;5243355;28;20033;-70
2021/11/07 08:03:02;;;;;;;11.95;3.08;;;;;;;10.78;100.00;101569.06;5245244;28;20068;-69
2021/11/07 08:05:36;;;;;;;16.98;3.38;;;;;;;10.74;100.00;101563.22;5242304;28;20065;-69
2021/11/07 08:08:08;;;;;;;14.30;3.28;;;;;;;10.79;100.00;101563.72;5243778;28;20082;-69
2021/11/07 08:10:45;;;;;;;16.30;4.03;;;;;;;10.78;100.00;101562.03;5242175;28;20021;-69
2021/11/07 08:13:27;;;;;;;15.15;3.78;;;;;;;10.86;100.00;101564.94;5244213;28;20083;-69
2021/11/07 08:16:06;;;;;;;15.73;4.10;;;;;;;10.74;100.00;101549.28;5243604;28;20025;-69
2021/11/07 08:18:43;;;;;;;18.10;3.70;;;;;;;10.85;100.00;101563.28;5241495;28;20025;-69
2021/11/07 08:21:37;;;;;;;12.65;3.50;;;;;;;10.82;100.00;101562.66;5244961;28;20505;-69
2021/11/07 08:24:13;;;;;;;18.02;4.40;;;;;;;10.90;100.00;101579.47;5245338;28;20018;-69
2021/11/07 08:26:50;;;;;;;15.45;4.25;;;;;;;10.92;100.00;101574.97;5244994;28;20121;-70
2021/11/07 08:29:28;;;;;;;16.60;3.35;;;;;;;11.02;100.00;101582.13;5245805;28;20024;-70
2021/11/07 08:32:07;;;;;;;20.27;4.50;;;;;;;10.98;100.00;101585.94;5247303;28;20021;-70
2021/11/07 08:34:39;;;;;;;18.10;4.00;;;;;;;10.91;100.00;101599.53;5247083;28;20457;-69
2021/11/07 08:40:34;;;;;;;15.65;3.58;;;;;;;10.93;100.00;101573.19;5209143;28;20070;-70
2021/11/07 09:00:44;;;;;;;15.27;3.83;;;;;;;11.20;100.00;101572.88;5244957;28;20116;-69
2021/11/07 09:03:40;;;;;;;16.02;3.63;;;;;;;11.25;100.00;101576.03;5245423;28;20025;-69
2021/11/07 09:06:40;;;;;;;17.30;3.92;;;;;;;11.37;100.00;101574.25;5245983;28;20028;-69
2021/11/07 09:09:15;;;;;;;18.88;4.18;;;;;;;11.36;100.00;101573.38;5242672;28;20103;-69
2021/11/07 09:11:51;;;;;;;17.45;3.67;;;;;;;11.32;100.00;101571.13;5242717;28;20112;-70
2021/11/07 09:14:37;;;;;;;16.27;3.70;;;;;;;11.39;100.00;101572.31;5242535;28;20025;-70
2021/11/07 09:17:14;;;;;;;15.55;3.83;;;;;;;11.43;100.00;101586.88;5242038;28;20410;-70
2021/11/07 09:19:49;;;;;;;13.57;3.40;;;;;;;11.41;100.00;101576.50;5244081;28;20084;-70
2021/11/07 09:22:36;;;;;;;14.65;3.22;;;;;;;11.48;100.00;101586.50;5246036;28;20036;-70
2021/11/07 09:25:10;;;;;;;18.73;3.10;;;;;;;11.52;100.00;101590.59;5246831;28;20037;-70
2021/11/07 09:27:48;;;;;;;17.80;3.30;;;;;;;11.60;100.00;101581.19;5242092;28;20026;-70
2021/11/07 09:38:22;;;;;;;17.98;4.00;;;;;;;11.55;100.00;101591.19;5240174;28;20715;-70
2021/11/07 09:49:23;;;;;;;18.58;3.58;;;;;;;11.68;100.00;101591.09;5243008;28;20049;-70
2021/11/07 09:52:01;;;;;;;16.70;3.83;;;;;;;11.78;100.00;101596.44;5242478;28;20116;-70
2021/11/07 09:54:34;;;;;;;19.25;5.07;;;;;;;11.76;100.00;101585.25;5240621;28;20116;-70
2021/11/07 09:57:05;;;;;;;15.50;4.65;;;;;;;11.76;100.00;101578.19;5239977;28;20474;-70
2021/11/07 09:59:37;;;;;;;13.40;3.38;;;;;;;11.68;100.00;101580.59;5240317;28;20037;-70
2021/11/07 10:02:09;;;;;;;18.00;4.20;;;;;;;11.71;100.00;101592.66;5239858;28;20078;-70
2021/11/07 10:04:41;;;;;;;14.80;3.75;;;;;;;11.76;100.00;101593.94;5225217;28;20467;-70
2021/11/07 10:07:15;;;;;;;15.73;3.65;;;;;;;11.79;100.00;101580.59;5238927;28;20033;-70
2021/11/07 10:09:53;;;;;;;23.13;5.25;;;;;;;11.79;100.00;101580.59;5240523;28;20033;-70
2021/11/07 10:12:37;;;;;;;15.90;4.05;;;;;;;11.82;100.00;101592.63;5238302;28;20034;-70
2021/11/07 10:15:34;;;;;;;16.42;4.03;;;;;;;11.86;100.00;101589.69;5241242;28;20031;-70
2021/11/07 10:18:12;;;;;;;12.30;2.63;;;;;;;11.77;100.00;101577.22;5239547;28;20033;-70
2021/11/07 10:23:23;;;;;;;18.20;3.30;;;;;;;11.78;100.00;101599.06;5241455;28;20091;-70
2021/11/07 10:26:04;;;;;;;16.67;3.65;;;;;;;11.79;100.00;101585.00;5242121;28;20136;-70
2021/11/07 10:34:29;;;;;;;17.33;3.78;;;;;;;11.97;100.00;101587.97;5241104;28;20031;-70
2021/11/07 10:54:23;;;;;;;20.75;4.28;;;;;;;12.15;100.00;101586.53;5239751;28;20053;-69
2021/11/07 10:57:11;;;;;;;18.80;3.78;;;;;;;12.10;100.00;101604.47;5239584;28;20483;-69
2021/11/07 11:00:14;;;;;;;19.42;4.07;;;;;;;12.00;100.00;101604.34;5239827;28;20042;-69
2021/11/07 11:03:07;;;;;;;20.60;4.00;;;;;;;12.02;100.00;101598.97;5237991;28;20457;-69
2021/11/07 11:05:52;;;;;;;21.30;4.07;;;;;;;11.82;100.00;101595.25;5238792;28;20049;-69
2021/11/07 11:08:32;;;;;;;19.58;4.05;;;;;;;11.86;100.00;101601.97;5238816;28;20500;-69
2021/11/07 11:11:28;;;;;;;21.40;4.18;;;;;;;11.90;100.00;101601.63;5238396;28;20538;-69
2021/11/07 11:14:17;;;;;;;20.08;3.95;;;;;;;11.89;100.00;101585.97;5237844;28;20120;-71
2021/11/07 11:17:19;;;;;;;19.05;4.30;;;;;;;11.96;100.00;101588.94;5238749;28;20091;-70
2021/11/07 11:23:23;;;;;;;17.48;4.25;;;;;;;12.12;100.00;101577.13;5203318;28;20449;-69
2021/11/07 11:26:27;;;;;;;20.48;4.47;;;;;;;12.38;100.00;101576.81;5242290;28;20398;-69
2021/11/07 11:32:01;;;;;;;19.60;3.97;;;;;;;12.42;100.00;101572.97;5241692;28;20047;-70
2021/11/07 11:34:39;;;;;;;;;;;;;;;12.88;100.00;101572.69;5239425;28;20029;-69
2021/11/07 11:37:23;;;;;;;23.60;3.97;;;;;;;12.48;100.00;101583.00;5239290;28;19917;-70
2021/11/07 11:40:08;;;;;;;19.30;3.55;;;;;;;12.41;100.00;101584.44;5241314;28;20060;-70
2021/11/07 11:45:22;;;;;;;11.88;3.17;;;;;;;12.44;100.00;101572.88;5239734;28;20051;-70
2021/11/07 11:54:31;;;;;;;22.10;4.35;;;;;;;12.37;100.00;101564.63;5237773;28;20052;-69
2021/11/07 11:57:28;;;;;;;20.02;3.67;;;;;;;12.34;100.00;101570.13;5238277;28;20403;-69
2021/11/07 12:01:03;;;;;;;13.65;3.03;;;;;;;12.46;100.00;101574.38;5237815;28;20040;-70
2021/11/07 12:09:34;;;;;;;20.27;4.40;;;;;;;12.63;100.00;101573.03;5242226;28;20041;-69
2021/11/07 12:12:18;;;;;;;18.10;4.10;;;;;;;12.35;100.00;101575.28;5242631;28;20025;-71
2021/11/07 12:15:09;;;;;;;14.25;3.65;;;;;;;12.42;100.00;101580.84;5240915;28;20082;-70
2021/11/07 12:17:46;;;;;;;16.83;3.35;;;;;;;12.41;100.00;101577.41;5242868;28;20033;-72
2021/11/07 12:20:25;;;;;;;22.52;4.32;;;;;;;12.57;100.00;101576.97;5242052;28;20737;-70
2021/11/07 12:23:33;;;;;;;20.75;4.97;;;;;;;12.69;100.00;101562.03;5242188;28;20037;-69
2021/11/07 12:26:30;;;;;;;21.27;4.38;;;;;;;12.71;100.00;101565.34;5243518;28;20159;-69
2021/11/07 12:29:02;;;;;;;17.63;3.67;;;;;;;12.46;100.00;101560.41;5243708;28;20445;-69
2021/11/07 12:31:33;;;;;;;17.48;4.53;;;;;;;12.37;100.00;101564.63;5241767;28;20021;-69
2021/11/07 12:34:10;;;;;;;16.60;3.88;;;;;;;12.47;100.00;101560.31;5240716;28;20108;-70
2021/11/07 12:42:35;;;;;;;18.23;4.03;;;;;;;12.79;100.00;101564.72;5242743;28;20045;-69
2021/11/07 12:45:34;;;;;;;16.23;3.60;;;;;;;13.00;100.00;101556.84;5239172;28;20021;-71
2021/11/07 12:48:08;;;;;;;18.60;4.45;;;;;;;12.88;100.00;101563.97;5242345;28;20036;-69
2021/11/07 12:50:59;;;;;;;22.25;4.57;;;;;;;13.11;100.00;101569.94;5243153;28;20029;-69
2021/11/07 12:54:02;;;;;;;16.88;3.40;;;;;;;13.11;100.00;101562.88;5250817;28;20419;-70
2021/11/07 12:56:39;;;;;;;17.17;3.85;;;;;;;12.89;100.00;101576.16;5244054;28;20134;-69
2021/11/07 12:59:14;;;;;;;12.15;3.35;;;;;;;12.87;100.00;101578.88;5244078;28;20414;-69
2021/11/07 13:02:01;;;;;;;16.05;3.28;;;;;;;12.91;100.00;101576.84;5242325;28;20025;-69
2021/11/07 13:04:40;;;;;;;16.98;3.75;;;;;;;12.82;100.00;101574.97;5241652;28;20391;-69
2021/11/07 13:07:19;;;;;;;14.15;3.15;;;;;;;12.73;100.00;101575.72;5242099;28;20025;-70
2021/11/07 13:09:58;;;;;;;14.23;3.40;;;;;;;12.57;100.00;101579.59;5242467;28;20692;-70
2021/11/07 13:15:40;;;;;;;18.70;3.70;;;;;;;12.52;100.00;101575.69;5243135;28;20025;-70
2021/11/07 13:19:14;;;;;;;16.75;3.53;;;;;;;12.24;100.00;101577.09;5241453;28;20029;-69
2021/11/07 13:24:17;;;;;;;13.95;3.22;;;;;;;12.28;100.00;101591.66;5239754;28;20388;-69
2021/11/07 13:29:48;;;;;;;14.13;3.50;;;;;;;12.36;100.00;101582.19;5241384;28;20037;-71
2021/11/07 13:35:10;;;;;;;13.25;3.08;;;;;;;12.32;100.00;101575.53;5242970;28;20444;-71
2021/11/07 13:37:55;;;;;;;19.23;4.00;;;;;;;12.22;100.00;101576.38;5242458;28;20546;-69
2021/11/07 13:40:31;;;;;;;16.30;3.00;;;;;;;12.14;100.00;101562.06;5240773;28;20107;-69
2021/11/07 13:43:18;;;;;;;14.00;3.30;;;;;;;12.23;100.00;101567.53;5240207;28;20484;-70
2021/11/07 13:45:52;;;;;;;16.15;3.92;;;;;;;12.08;100.00;101564.34;5239623;28;20025;-70
2021/11/07 13:48:32;;;;;;;23.55;5.03;;;;;;;12.18;100.00;101575.78;5241299;28;20033;-69
2021/11/07 13:51:04;;;;;;;16.35;3.58;;;;;;;12.10;100.00;101572.94;5241496;28;20486;-69
2021/11/07 13:53:41;;;;;;;17.58;4.15;;;;;;;12.14;100.00;101562.06;5240963;28;20038;-70
2021/11/07 13:56:13;;;;;;;18.60;3.65;;;;;;;12.16;100.00;101570.66;5240413;28;20033;-69
2021/11/07 13:58:44;;;;;;;23.38;5.45;;;;;;;12.17;100.00;101559.19;5239699;28;20030;-70
2021/11/07 14:01:17;;;;;;;19.17;4.20;;;;;;;12.14;100.00;101566.47;5239961;28;20078;-71
2021/11/07 14:03:55;;;;;;;21.40;4.45;;;;;;;12.26;100.00;101559.41;5241350;28;20037;-69
2021/11/07 14:06:36;;;;;;;18.50;4.78;;;;;;;12.24;100.00;101580.56;5239202;28;20040;-70
2021/11/07 14:09:09;;;;;;;17.65;5.00;;;;;;;12.21;100.00;101578.16;5239918;28;20112;-69
2021/11/07 14:11:41;;;;;;;19.67;3.47;;;;;;;12.11;100.00;101579.84;5241454;28;20032;-70
2021/11/07 14:14:13;;;;;;;18.20;4.57;;;;;;;12.10;100.00;101572.94;5241362;28;20434;-69
2021/11/07 14:16:51;;;;;;;18.85;4.38;;;;;;;12.12;100.00;101577.13;5239850;28;20025;-70
2021/11/07 14:19:22;;;;;;;21.13;4.95;;;;;;;12.05;100.00;101569.84;5240163;28;20025;-69
2021/11/07 14:21:57;;;;;;;16.08;3.97;;;;;;;12.07;100.00;101573.19;5241791;28;20493;-71